sensor_id;sensor_type;location;lat;lon;timestamp;pressure;altitude;pressure_sealevel;temperature;humidity
44531;BME280;30240;47.418;0.700;2023-05-10T00:02:09;100433.31298828125;;;11.74;87.06
44531;BME280;30240;47.418;0.700;2023-05-10T00:04:34;100430.18188476562;;;11.76;87.07
44531;BME280;30240;47.418;0.700;2023-05-10T00:06:59;100430.18188476562;;;11.76;87.07
44531;BME280;30240;47.418;0.700;2023-05-10T00:09:24;100427.84423828125;;;11.72;86.94
44531;BME280;30240;47.418;0.700;2023-05-10T00:11:49;100435.74829101562;;;11.66;87.19
44531;BME280;30240;47.418;0.700;2023-05-10T00:14:14;100422.54638671875;;;11.66;87.17
44531;BME280;30240;47.418;0.700;2023-05-10T00:16:38;100422.40600585938;;;11.62;87.07
44531;BME280;30240;47.418;0.700;2023-05-10T00:19:04;100422.40600585938;;;11.62;87.07
44531;BME280;30240;47.418;0.700;2023-05-10T00:21:29;100425.37231445312;;;11.64;87.15
44531;BME280;30240;47.418;0.700;2023-05-10T00:23:54;100426.06201171875;;;11.65;86.84
44531;BME280;30240;47.418;0.700;2023-05-10T00:26:18;100432.90405273438;;;11.65;87.03
44531;BME280;30240;47.418;0.700;2023-05-10T00:28:43;100432.79418945312;;;11.55;87.02
44531;BME280;30240;47.418;0.700;2023-05-10T00:31:09;100441.4794921875;;;11.55;87.24
44531;BME280;30240;47.418;0.700;2023-05-10T00:33:33;100441.4794921875;;;11.55;87.24
44531;BME280;30240;47.418;0.700;2023-05-10T00:35:58;100429.65698242188;;;11.54;87.16
44531;BME280;30240;47.418;0.700;2023-05-10T00:38:23;100433.82568359375;;;11.48;87.2
44531;BME280;30240;47.418;0.700;2023-05-10T00:40:48;100438.720703125;;;11.42;87.51
44531;BME280;30240;47.418;0.700;2023-05-10T00:43:13;100426.4404296875;;;11.42;87.43
44531;BME280;30240;47.418;0.700;2023-05-10T00:45:39;100426.4404296875;;;11.42;87.43
44531;BME280;30240;47.418;0.700;2023-05-10T00:48:04;100429.57153320312;;;11.41;87.43
44531;BME280;30240;47.418;0.700;2023-05-10T00:50:29;100436.48681640625;;;11.33;87.65
44531;BME280;30240;47.418;0.700;2023-05-10T00:52:54;100434.40551757812;;;11.31;87.55
44531;BME280;30240;47.418;0.700;2023-05-10T00:55:19;100432.17163085938;;;11.35;87.71
44531;BME280;30240;47.418;0.700;2023-05-10T00:57:44;100432.17163085938;;;11.35;87.71
44531;BME280;30240;47.418;0.700;2023-05-10T01:00:09;100439.0869140625;;;11.3;87.89
44531;BME280;30240;47.418;0.700;2023-05-10T01:02:34;100435.52856445312;;;11.31;87.77
44531;BME280;30240;47.418;0.700;2023-05-10T01:04:58;100435.107421875;;;11.28;87.85
44531;BME280;30240;47.418;0.700;2023-05-10T01:07:23;100431.5673828125;;;11.3;87.82
44531;BME280;30240;47.418;0.700;2023-05-10T01:09:49;100431.5673828125;;;11.3;87.82
44531;BME280;30240;47.418;0.700;2023-05-10T01:12:14;100429.99877929688;;;11.33;87.88
44531;BME280;30240;47.418;0.700;2023-05-10T01:14:39;100428.04565429688;;;11.31;87.95
44531;BME280;30240;47.418;0.700;2023-05-10T01:17:04;100425.46997070312;;;11.33;87.7
44531;BME280;30240;47.418;0.700;2023-05-10T01:19:30;100431.75048828125;;;11.34;87.6
44531;BME280;30240;47.418;0.700;2023-05-10T01:22:00;100431.75048828125;;;11.34;87.6
44531;BME280;30240;47.418;0.700;2023-05-10T01:24:38;100437.78686523438;;;11.41;87.3
44531;BME280;30240;47.418;0.700;2023-05-10T01:27:02;100436.82861328125;;;11.47;87.29
44531;BME280;30240;47.418;0.700;2023-05-10T01:27:18;100436.82861328125;;;11.47;87.29
44531;BME280;30240;47.418;0.700;2023-05-10T01:29:18;100438.64135742188;;;11.48;87.29
44531;BME280;30240;47.418;0.700;2023-05-10T01:31:59;100429.82788085938;;;11.48;87.04
44531;BME280;30240;47.418;0.700;2023-05-10T01:34:02;100429.82788085938;;;11.48;87.04
44531;BME280;30240;47.418;0.700;2023-05-10T01:36:27;100429.74853515625;;;11.48;86.98
44531;BME280;30240;47.418;0.700;2023-05-10T01:38:50;100434.26513671875;;;11.51;87.04
44531;BME280;30240;47.418;0.700;2023-05-10T01:41:18;100427.87475585938;;;11.51;86.89
44531;BME280;30240;47.418;0.700;2023-05-10T01:43:50;100433.9111328125;;;11.52;86.71
44531;BME280;30240;47.418;0.700;2023-05-10T01:43:54;100433.9111328125;;;11.52;86.71
44531;BME280;30240;47.418;0.700;2023-05-10T01:43:57;100433.9111328125;;;11.52;86.71
44531;BME280;30240;47.418;0.700;2023-05-10T01:46:08;100433.9111328125;;;11.52;86.71
44531;BME280;30240;47.418;0.700;2023-05-10T01:48:29;100432.45239257812;;;11.51;86.79
44531;BME280;30240;47.418;0.700;2023-05-10T01:50:55;100441.35131835938;;;11.52;86.81
44531;BME280;30240;47.418;0.700;2023-05-10T01:53:20;100446.17919921875;;;11.5;86.83
44531;BME280;30240;47.418;0.700;2023-05-10T01:55:46;100452.82592773438;;;11.37;86.77
44531;BME280;30240;47.418;0.700;2023-05-10T01:58:11;100449.68872070312;;;11.35;86.84
44531;BME280;30240;47.418;0.700;2023-05-10T02:00:34;100449.68872070312;;;11.35;86.84
44531;BME280;30240;47.418;0.700;2023-05-10T02:03:00;100456.0791015625;;;11.34;86.59
44531;BME280;30240;47.418;0.700;2023-05-10T02:05:24;100451.09252929688;;;11.26;86.76
44531;BME280;30240;47.418;0.700;2023-05-10T02:07:49;100455.3955078125;;;11.27;86.28
44531;BME280;30240;47.418;0.700;2023-05-10T02:10:14;100451.50146484375;;;11.19;86.42
44531;BME280;30240;47.418;0.700;2023-05-10T02:12:43;100451.50146484375;;;11.19;86.42
44531;BME280;30240;47.418;0.700;2023-05-10T02:15:05;100453.369140625;;;11.17;86.59
44531;BME280;30240;47.418;0.700;2023-05-10T02:17:30;100451.98364257812;;;11.06;86.65
44531;BME280;30240;47.418;0.700;2023-05-10T02:19:55;100452.25219726562;;;11.08;86.7
44531;BME280;30240;47.418;0.700;2023-05-10T02:22:19;100457.5439453125;;;11.06;86.55
44531;BME280;30240;47.418;0.700;2023-05-10T02:24:44;100457.5439453125;;;11.06;86.55
44531;BME280;30240;47.418;0.700;2023-05-10T02:27:09;100451.92260742188;;;10.98;86.63
44531;BME280;30240;47.418;0.700;2023-05-10T02:29:34;100459.765625;;;11.0;86.68
44531;BME280;30240;47.418;0.700;2023-05-10T02:31:59;100462.6220703125;;;10.95;86.71
44531;BME280;30240;47.418;0.700;2023-05-10T02:34:25;100464.1845703125;;;10.89;86.88
44531;BME280;30240;47.418;0.700;2023-05-10T02:36:49;100464.1845703125;;;10.89;86.88
44531;BME280;30240;47.418;0.700;2023-05-10T02:39:14;100470.20263671875;;;10.86;86.7
44531;BME280;30240;47.418;0.700;2023-05-10T02:41:39;100462.56103515625;;;10.89;86.7
44531;BME280;30240;47.418;0.700;2023-05-10T02:44:06;100468.52416992188;;;10.88;86.84
44531;BME280;30240;47.418;0.700;2023-05-10T02:46:29;100470.4345703125;;;10.86;86.63
44531;BME280;30240;47.418;0.700;2023-05-10T02:48:53;100470.4345703125;;;10.86;86.63
44531;BME280;30240;47.418;0.700;2023-05-10T02:51:20;100462.548828125;;;10.86;86.71
44531;BME280;30240;47.418;0.700;2023-05-10T02:53:45;100462.96997070312;;;10.76;86.59
44531;BME280;30240;47.418;0.700;2023-05-10T02:56:13;100464.23950195312;;;10.78;86.73
44531;BME280;30240;47.418;0.700;2023-05-10T02:58:33;100463.5009765625;;;10.75;86.87
44531;BME280;30240;47.418;0.700;2023-05-10T03:00:59;100463.5009765625;;;10.75;86.87
44531;BME280;30240;47.418;0.700;2023-05-10T03:03:23;100467.4560546875;;;10.78;86.73
44531;BME280;30240;47.418;0.700;2023-05-10T03:05:48;100462.59155273438;;;10.75;86.42
44531;BME280;30240;47.418;0.700;2023-05-10T03:08:13;100465.48461914062;;;10.78;86.03
44531;BME280;30240;47.418;0.700;2023-05-10T03:10:50;100470.28198242188;;;10.82;86.26
44531;BME280;30240;47.418;0.700;2023-05-10T03:10:55;100470.28198242188;;;10.82;86.26
44531;BME280;30240;47.418;0.700;2023-05-10T03:13:07;100470.28198242188;;;10.82;86.26
44531;BME280;30240;47.418;0.700;2023-05-10T03:15:35;100463.9892578125;;;10.81;86.16
44531;BME280;30240;47.418;0.700;2023-05-10T03:17:57;100474.7314453125;;;10.76;86.07
44531;BME280;30240;47.418;0.700;2023-05-10T03:18:01;100474.7314453125;;;10.76;86.07
44531;BME280;30240;47.418;0.700;2023-05-10T03:20:22;100467.65747070312;;;10.75;86.24
44531;BME280;30240;47.418;0.700;2023-05-10T03:22:46;100465.70434570312;;;10.79;86.2
44531;BME280;30240;47.418;0.700;2023-05-10T03:25:10;100471.62475585938;;;10.75;86.38
44531;BME280;30240;47.418;0.700;2023-05-10T03:27:35;100471.62475585938;;;10.75;86.38
44531;BME280;30240;47.418;0.700;2023-05-10T03:29:59;100478.68041992188;;;10.78;86.45
44531;BME280;30240;47.418;0.700;2023-05-10T03:32:23;100466.77856445312;;;10.71;86.35
44531;BME280;30240;47.418;0.700;2023-05-10T03:34:49;100454.1748046875;;;10.71;86.27
44531;BME280;30240;47.418;0.700;2023-05-10T03:37:13;100460.57739257812;;;10.58;86.43
44531;BME280;30240;47.418;0.700;2023-05-10T03:39:38;100460.57739257812;;;10.58;86.43
44531;BME280;30240;47.418;0.700;2023-05-10T03:42:04;100465.2099609375;;;10.5;86.65
44531;BME280;30240;47.418;0.700;2023-05-10T03:44:28;100460.5712890625;;;10.49;86.82
44531;BME280;30240;47.418;0.700;2023-05-10T03:46:54;100465.82641601562;;;10.56;86.95
44531;BME280;30240;47.418;0.700;2023-05-10T03:49:18;100463.0859375;;;10.43;86.94
44531;BME280;30240;47.418;0.700;2023-05-10T03:51:43;100463.0859375;;;10.43;86.94
44531;BME280;30240;47.418;0.700;2023-05-10T03:54:08;100469.25048828125;;;10.39;87.02
44531;BME280;30240;47.418;0.700;2023-05-10T03:56:34;100467.09594726562;;;10.4;87.22
44531;BME280;30240;47.418;0.700;2023-05-10T03:58:59;100465.7958984375;;;10.43;87.29
44531;BME280;30240;47.418;0.700;2023-05-10T04:01:23;100473.06518554688;;;10.37;87.16
44531;BME280;30240;47.418;0.700;2023-05-10T04:03:48;100473.06518554688;;;10.37;87.16
44531;BME280;30240;47.418;0.700;2023-05-10T04:06:13;100471.77124023438;;;10.41;87.29
44531;BME280;30240;47.418;0.700;2023-05-10T04:08:38;100476.72729492188;;;10.46;87.19
44531;BME280;30240;47.418;0.700;2023-05-10T04:11:05;100472.98583984375;;;10.39;87.19
44531;BME280;30240;47.418;0.700;2023-05-10T04:13:29;100471.9970703125;;;10.44;87.19
44531;BME280;30240;47.418;0.700;2023-05-10T04:15:53;100471.9970703125;;;10.44;87.19
44531;BME280;30240;47.418;0.700;2023-05-10T04:18:19;100474.62768554688;;;10.4;87.29
44531;BME280;30240;47.418;0.700;2023-05-10T04:20:43;100482.95288085938;;;10.39;87.31
44531;BME280;30240;47.418;0.700;2023-05-10T04:23:08;100491.60766601562;;;10.4;87.38
44531;BME280;30240;47.418;0.700;2023-05-10T04:25:34;100483.4716796875;;;10.41;87.31
44531;BME280;30240;47.418;0.700;2023-05-10T04:27:58;100483.4716796875;;;10.41;87.31
44531;BME280;30240;47.418;0.700;2023-05-10T04:30:24;100489.22119140625;;;10.4;87.4
44531;BME280;30240;47.418;0.700;2023-05-10T04:32:49;100485.35766601562;;;10.4;87.32
44531;BME280;30240;47.418;0.700;2023-05-10T04:35:13;100484.68627929688;;;10.43;87.35
44531;BME280;30240;47.418;0.700;2023-05-10T04:37:38;100486.16943359375;;;10.46;87.6
44531;BME280;30240;47.418;0.700;2023-05-10T04:40:04;100486.16943359375;;;10.46;87.6
44531;BME280;30240;47.418;0.700;2023-05-10T04:42:29;100489.42260742188;;;10.4;87.62
44531;BME280;30240;47.418;0.700;2023-05-10T04:44:53;100484.3505859375;;;10.44;87.48
44531;BME280;30240;47.418;0.700;2023-05-10T04:47:18;100493.29833984375;;;10.44;87.33
44531;BME280;30240;47.418;0.700;2023-05-10T04:49:43;100498.20556640625;;;10.51;87.3
44531;BME280;30240;47.418;0.700;2023-05-10T04:52:08;100498.20556640625;;;10.51;87.3
44531;BME280;30240;47.418;0.700;2023-05-10T04:54:33;100499.68872070312;;;10.46;87.46
44531;BME280;30240;47.418;0.700;2023-05-10T04:56:58;100498.06518554688;;;10.53;87.33
44531;BME280;30240;47.418;0.700;2023-05-10T04:59:23;100494.56176757812;;;10.56;87.15
44531;BME280;30240;47.418;0.700;2023-05-10T05:01:48;100498.88916015625;;;10.63;87.3
44531;BME280;30240;47.418;0.700;2023-05-10T05:04:13;100496.044921875;;;10.5;87.46
44531;BME280;30240;47.418;0.700;2023-05-10T05:06:38;100496.044921875;;;10.5;87.46
44531;BME280;30240;47.418;0.700;2023-05-10T05:09:04;100501.45263671875;;;10.56;87.41
44531;BME280;30240;47.418;0.700;2023-05-10T05:11:28;100497.90649414062;;;10.58;87.38
44531;BME280;30240;47.418;0.700;2023-05-10T05:13:53;100508.84399414062;;;10.58;87.36
44531;BME280;30240;47.418;0.700;2023-05-10T05:16:19;100509.62524414062;;;10.63;87.37
44531;BME280;30240;47.418;0.700;2023-05-10T05:18:43;100509.62524414062;;;10.63;87.37
44531;BME280;30240;47.418;0.700;2023-05-10T05:21:17;100515.71044921875;;;10.64;87.39
44531;BME280;30240;47.418;0.700;2023-05-10T05:23:33;100515.9912109375;;;10.58;87.43
44531;BME280;30240;47.418;0.700;2023-05-10T05:25:58;100523.40698242188;;;10.58;87.66
44531;BME280;30240;47.418;0.700;2023-05-10T05:28:24;100525.9521484375;;;10.68;87.42
44531;BME280;30240;47.418;0.700;2023-05-10T05:30:48;100525.9521484375;;;10.68;87.42
44531;BME280;30240;47.418;0.700;2023-05-10T05:33:14;100521.67358398438;;;10.63;87.39
44531;BME280;30240;47.418;0.700;2023-05-10T05:35:38;100520.00732421875;;;10.61;87.54
44531;BME280;30240;47.418;0.700;2023-05-10T05:38:03;100526.08032226562;;;10.67;87.35
44531;BME280;30240;47.418;0.700;2023-05-10T05:40:28;100527.36206054688;;;10.53;87.36
44531;BME280;30240;47.418;0.700;2023-05-10T05:42:54;100527.36206054688;;;10.53;87.36
44531;BME280;30240;47.418;0.700;2023-05-10T05:45:18;100534.09423828125;;;10.79;87.15
44531;BME280;30240;47.418;0.700;2023-05-10T05:47:44;100542.07153320312;;;10.86;87.02
44531;BME280;30240;47.418;0.700;2023-05-10T05:50:09;100547.900390625;;;10.88;86.83
44531;BME280;30240;47.418;0.700;2023-05-10T05:52:34;100550.7568359375;;;10.79;86.88
44531;BME280;30240;47.418;0.700;2023-05-10T05:54:58;100550.7568359375;;;10.79;86.88
44531;BME280;30240;47.418;0.700;2023-05-10T05:57:23;100543.38989257812;;;10.84;87.03
44531;BME280;30240;47.418;0.700;2023-05-10T05:59:48;100546.77124023438;;;10.75;87.1
44531;BME280;30240;47.418;0.700;2023-05-10T06:02:13;100543.1396484375;;;10.67;87.36
44531;BME280;30240;47.418;0.700;2023-05-10T06:04:38;100546.81396484375;;;10.67;87.39
44531;BME280;30240;47.418;0.700;2023-05-10T06:07:03;100546.81396484375;;;10.67;87.39
44531;BME280;30240;47.418;0.700;2023-05-10T06:09:29;100553.70483398438;;;10.88;87.28
44531;BME280;30240;47.418;0.700;2023-05-10T06:11:53;100546.83837890625;;;10.79;87.31
44531;BME280;30240;47.418;0.700;2023-05-10T06:14:20;100558.79516601562;;;11.03;86.71
44531;BME280;30240;47.418;0.700;2023-05-10T06:16:43;100562.71362304688;;;10.95;87.29
44531;BME280;30240;47.418;0.700;2023-05-10T06:19:08;100562.71362304688;;;10.95;87.29
44531;BME280;30240;47.418;0.700;2023-05-10T06:21:34;100557.80639648438;;;10.67;87.01
44531;BME280;30240;47.418;0.700;2023-05-10T06:23:58;100563.8427734375;;;10.68;87.43
44531;BME280;30240;47.418;0.700;2023-05-10T06:26:23;100561.8896484375;;;10.65;87.71
44531;BME280;30240;47.418;0.700;2023-05-10T06:28:48;100565.90576171875;;;10.65;87.65
44531;BME280;30240;47.418;0.700;2023-05-10T06:31:13;100579.96826171875;;;10.78;87.4
44531;BME280;30240;47.418;0.700;2023-05-10T06:33:38;100579.96826171875;;;10.78;87.4
44531;BME280;30240;47.418;0.700;2023-05-10T06:36:04;100581.78100585938;;;10.82;87.21
44531;BME280;30240;47.418;0.700;2023-05-10T06:38:28;100569.03686523438;;;10.71;87.37
44531;BME280;30240;47.418;0.700;2023-05-10T06:40:53;100569.70825195312;;;10.85;87.11
44531;BME280;30240;47.418;0.700;2023-05-10T06:43:18;100580.69458007812;;;10.82;87.5
44531;BME280;30240;47.418;0.700;2023-05-10T06:45:43;100580.69458007812;;;10.82;87.5
44531;BME280;30240;47.418;0.700;2023-05-10T06:48:09;100574.560546875;;;10.95;87.28
44531;BME280;30240;47.418;0.700;2023-05-10T06:50:34;100578.67431640625;;;11.15;86.94
44531;BME280;30240;47.418;0.700;2023-05-10T06:52:59;100575.146484375;;;11.26;86.32
44531;BME280;30240;47.418;0.700;2023-05-10T06:55:23;100565.96069335938;;;11.09;86.89
44531;BME280;30240;47.418;0.700;2023-05-10T06:57:48;100565.96069335938;;;11.09;86.89
44531;BME280;30240;47.418;0.700;2023-05-10T07:00:14;100574.30419921875;;;11.03;86.89
44531;BME280;30240;47.418;0.700;2023-05-10T07:02:38;100559.21630859375;;;11.13;87.31
44531;BME280;30240;47.418;0.700;2023-05-10T07:05:04;100561.81030273438;;;11.26;86.9
44531;BME280;30240;47.418;0.700;2023-05-10T07:07:28;100561.82861328125;;;11.3;86.8
44531;BME280;30240;47.418;0.700;2023-05-10T07:09:54;100561.82861328125;;;11.3;86.8
44531;BME280;30240;47.418;0.700;2023-05-10T07:12:19;100562.35961914062;;;11.41;86.14
44531;BME280;30240;47.418;0.700;2023-05-10T07:14:43;100562.43896484375;;;11.19;86.86
44531;BME280;30240;47.418;0.700;2023-05-10T07:17:09;100548.66943359375;;;11.48;86.57
44531;BME280;30240;47.418;0.700;2023-05-10T07:19:33;100559.74731445312;;;11.62;86.2
44531;BME280;30240;47.418;0.700;2023-05-10T07:21:58;100559.74731445312;;;11.62;86.2
44531;BME280;30240;47.418;0.700;2023-05-10T07:24:23;100553.47900390625;;;11.68;86.04
44531;BME280;30240;47.418;0.700;2023-05-10T07:26:48;100550.45166015625;;;11.81;85.39
44531;BME280;30240;47.418;0.700;2023-05-10T07:29:13;100532.6416015625;;;11.58;86.06
44531;BME280;30240;47.418;0.700;2023-05-10T07:31:38;100537.81127929688;;;11.62;85.41
44531;BME280;30240;47.418;0.700;2023-05-10T07:34:03;100537.81127929688;;;11.62;85.41
44531;BME280;30240;47.418;0.700;2023-05-10T07:36:28;100530.5908203125;;;11.86;85.24
44531;BME280;30240;47.418;0.700;2023-05-10T07:38:53;100533.57543945312;;;12.13;85.1
44531;BME280;30240;47.418;0.700;2023-05-10T07:41:18;100541.10717773438;;;12.09;84.41
44531;BME280;30240;47.418;0.700;2023-05-10T07:43:43;100530.82885742188;;;11.97;84.68
44531;BME280;30240;47.418;0.700;2023-05-10T07:46:08;100530.82885742188;;;11.97;84.68
44531;BME280;30240;47.418;0.700;2023-05-10T07:48:34;100540.31982421875;;;12.34;84.2
44531;BME280;30240;47.418;0.700;2023-05-10T07:50:59;100524.54833984375;;;12.65;82.85
44531;BME280;30240;47.418;0.700;2023-05-10T07:53:25;100529.6630859375;;;12.92;82.87
44531;BME280;30240;47.418;0.700;2023-05-10T07:55:50;100515.27099609375;;;13.04;82.0
44531;BME280;30240;47.418;0.700;2023-05-10T07:58:14;100515.27099609375;;;13.04;82.0
44531;BME280;30240;47.418;0.700;2023-05-10T08:00:38;100514.43481445312;;;13.06;81.7
44531;BME280;30240;47.418;0.700;2023-05-10T08:03:04;100504.90112304688;;;12.99;81.95
44531;BME280;30240;47.418;0.700;2023-05-10T08:05:29;100495.22094726562;;;13.14;81.22
44531;BME280;30240;47.418;0.700;2023-05-10T08:07:54;100491.68090820312;;;13.41;81.11
44531;BME280;30240;47.418;0.700;2023-05-10T08:10:19;100495.458984375;;;13.06;80.63
44531;BME280;30240;47.418;0.700;2023-05-10T08:12:44;100495.458984375;;;13.06;80.63
44531;BME280;30240;47.418;0.700;2023-05-10T08:15:09;100500.40893554688;;;13.5;80.13
44531;BME280;30240;47.418;0.700;2023-05-10T08:17:34;100468.42041015625;;;13.56;78.8
44531;BME280;30240;47.418;0.700;2023-05-10T08:19:59;100474.7802734375;;;13.48;79.85
44531;BME280;30240;47.418;0.700;2023-05-10T08:22:24;100542.26684570312;;;13.78;79.69
44531;BME280;30240;47.418;0.700;2023-05-10T08:24:49;100542.26684570312;;;13.78;79.69
44531;BME280;30240;47.418;0.700;2023-05-10T08:27:14;100535.99853515625;;;13.52;79.67
44531;BME280;30240;47.418;0.700;2023-05-10T08:29:39;100557.7392578125;;;14.09;79.02
44531;BME280;30240;47.418;0.700;2023-05-10T08:32:04;100555.615234375;;;14.08;79.08
44531;BME280;30240;47.418;0.700;2023-05-10T08:34:29;100562.96997070312;;;13.65;80.44
44531;BME280;30240;47.418;0.700;2023-05-10T08:36:54;100562.96997070312;;;13.65;80.44
44531;BME280;30240;47.418;0.700;2023-05-10T08:39:19;100561.74926757812;;;14.32;78.03
44531;BME280;30240;47.418;0.700;2023-05-10T08:41:45;100557.11669921875;;;14.05;78.35
44531;BME280;30240;47.418;0.700;2023-05-10T08:44:09;100568.12744140625;;;13.46;79.67
44531;BME280;30240;47.418;0.700;2023-05-10T08:46:35;100569.30541992188;;;14.04;78.89
44531;BME280;30240;47.418;0.700;2023-05-10T08:48:59;100569.30541992188;;;14.04;78.89
44531;BME280;30240;47.418;0.700;2023-05-10T08:51:24;100558.28247070312;;;13.73;78.82
44531;BME280;30240;47.418;0.700;2023-05-10T08:53:49;100562.890625;;;14.39;76.69
44531;BME280;30240;47.418;0.700;2023-05-10T08:56:15;100566.24145507812;;;15.15;75.31
44531;BME280;30240;47.418;0.700;2023-05-10T08:58:39;100567.34619140625;;;15.33;74.69
44531;BME280;30240;47.418;0.700;2023-05-10T09:01:04;100567.34619140625;;;15.33;74.69
44531;BME280;30240;47.418;0.700;2023-05-10T09:03:29;100571.826171875;;;15.6;73.24
44531;BME280;30240;47.418;0.700;2023-05-10T09:05:54;100561.60888671875;;;14.51;75.47
44531;BME280;30240;47.418;0.700;2023-05-10T09:08:19;100552.392578125;;;14.61;74.32
44531;BME280;30240;47.418;0.700;2023-05-10T09:10:44;100585.3271484375;;;14.76;75.79
44531;BME280;30240;47.418;0.700;2023-05-10T09:13:10;100585.3271484375;;;14.76;75.79
44531;BME280;30240;47.418;0.700;2023-05-10T09:15:33;100583.43505859375;;;14.66;76.51
44531;BME280;30240;47.418;0.700;2023-05-10T09:17:59;100584.46044921875;;;16.14;73.25
44531;BME280;30240;47.418;0.700;2023-05-10T09:20:24;100557.67211914062;;;15.1;75.12
44531;BME280;30240;47.418;0.700;2023-05-10T09:22:49;100562.50610351562;;;14.95;74.76
44531;BME280;30240;47.418;0.700;2023-05-10T09:25:15;100562.50610351562;;;14.95;74.76
44531;BME280;30240;47.418;0.700;2023-05-10T09:27:40;100567.87719726562;;;15.36;74.26
44531;BME280;30240;47.418;0.700;2023-05-10T09:30:04;100566.36962890625;;;14.73;75.73
44531;BME280;30240;47.418;0.700;2023-05-10T09:32:36;100573.15673828125;;;14.68;74.57
44531;BME280;30240;47.418;0.700;2023-05-10T09:34:53;100572.0703125;;;14.15;76.19
44531;BME280;30240;47.418;0.700;2023-05-10T09:37:29;100569.78149414062;;;13.88;78.53
44531;BME280;30240;47.418;0.700;2023-05-10T09:39:44;100569.78149414062;;;13.88;78.53
44531;BME280;30240;47.418;0.700;2023-05-10T09:42:09;100576.62353515625;;;14.26;77.09
44531;BME280;30240;47.418;0.700;2023-05-10T09:44:34;100579.6875;;;14.14;76.08
44531;BME280;30240;47.418;0.700;2023-05-10T09:46:59;100591.93115234375;;;14.7;75.27
44531;BME280;30240;47.418;0.700;2023-05-10T09:49:24;100579.54711914062;;;15.08;74.44
44531;BME280;30240;47.418;0.700;2023-05-10T09:52:00;100579.54711914062;;;15.08;74.44
44531;BME280;30240;47.418;0.700;2023-05-10T09:54:15;100570.3857421875;;;14.64;75.46
44531;BME280;30240;47.418;0.700;2023-05-10T09:56:39;100561.87744140625;;;14.63;75.81
44531;BME280;30240;47.418;0.700;2023-05-10T09:59:04;100576.25732421875;;;15.58;74.38
44531;BME280;30240;47.418;0.700;2023-05-10T10:01:29;100576.47094726562;;;15.71;72.26
44531;BME280;30240;47.418;0.700;2023-05-10T10:03:54;100576.47094726562;;;15.71;72.26
44531;BME280;30240;47.418;0.700;2023-05-10T10:06:19;100582.2021484375;;;15.23;73.9
44531;BME280;30240;47.418;0.700;2023-05-10T10:08:43;100585.29663085938;;;14.43;75.93
44531;BME280;30240;47.418;0.700;2023-05-10T10:11:09;100593.5302734375;;;14.22;78.64
44531;BME280;30240;47.418;0.700;2023-05-10T10:13:34;100572.71728515625;;;14.3;78.88
44531;BME280;30240;47.418;0.700;2023-05-10T10:15:59;100572.71728515625;;;14.3;78.88
44531;BME280;30240;47.418;0.700;2023-05-10T10:18:24;100582.94677734375;;;14.6;77.52
44531;BME280;30240;47.418;0.700;2023-05-10T10:20:49;100580.6396484375;;;15.02;76.39
44531;BME280;30240;47.418;0.700;2023-05-10T10:23:13;100569.580078125;;;16.45;72.87
44531;BME280;30240;47.418;0.700;2023-05-10T10:25:39;100561.55395507812;;;16.08;72.39
44531;BME280;30240;47.418;0.700;2023-05-10T10:28:10;100561.55395507812;;;16.08;72.39
44531;BME280;30240;47.418;0.700;2023-05-10T10:28:16;100561.55395507812;;;16.08;72.39
44531;BME280;30240;47.418;0.700;2023-05-10T10:30:31;100541.09497070312;;;16.17;72.25
44531;BME280;30240;47.418;0.700;2023-05-10T10:33:01;100552.06298828125;;;16.06;71.46
44531;BME280;30240;47.418;0.700;2023-05-10T10:33:13;100552.06298828125;;;16.06;71.46
44531;BME280;30240;47.418;0.700;2023-05-10T10:33:22;100552.06298828125;;;16.06;71.46
44531;BME280;30240;47.418;0.700;2023-05-10T10:33:33;100552.06298828125;;;16.06;71.46
44531;BME280;30240;47.418;0.700;2023-05-10T10:35:19;100560.77880859375;;;15.43;71.34
44531;BME280;30240;47.418;0.700;2023-05-10T10:37:44;100546.435546875;;;15.92;69.47
44531;BME280;30240;47.418;0.700;2023-05-10T10:40:27;100546.435546875;;;15.92;69.47
44531;BME280;30240;47.418;0.700;2023-05-10T10:42:44;100552.50244140625;;;15.84;71.24
44531;BME280;30240;47.418;0.700;2023-05-10T10:45:12;100532.5439453125;;;16.68;67.8
44531;BME280;30240;47.418;0.700;2023-05-10T10:47:23;100542.59643554688;;;16.75;68.64
44531;BME280;30240;47.418;0.700;2023-05-10T10:49:50;100533.99047851562;;;16.78;67.4
44531;BME280;30240;47.418;0.700;2023-05-10T10:52:15;100533.99047851562;;;16.78;67.4
44531;BME280;30240;47.418;0.700;2023-05-10T10:54:38;100522.998046875;;;17.17;66.99
44531;BME280;30240;47.418;0.700;2023-05-10T10:57:11;100519.11010742188;;;16.41;67.18
44531;BME280;30240;47.418;0.700;2023-05-10T10:59:29;100540.20385742188;;;15.78;68.35
44531;BME280;30240;47.418;0.700;2023-05-10T11:01:53;100552.89916992188;;;16.02;68.57